Terminal Aerodrome Forecast
Issued by NWS

Home | Current Version | Previous Version | Text Only | Print | Product List | Glossary On
Versions: 1 2 3 4 5 6 7 8 9 10 11 12 13 14 15 16 17
000
FTUS41 KBOX 042333
TAFBAF
TAF
KBAF 042333Z 0500/0524 00000KT P6SM BKN250
     FM050800 00000KT P6SM VCSH OVC100
     FM050900 00000KT 2SM -SN OVC030
     FM051200 00000KT 3SM -SN OVC010
     FM051700 VRB03KT P6SM BKN030
     FM052200 27004KT P6SM SCT250=

USA.gov is the U.S. government's official web portal to all federal, state and local government web resources and services.